You are listening to:
YSCB App/Dep/Center - Canberra, Australian Capital Territory, Australia

YSCB 251800Z AUTO 19005KT 9999 // OVC027 08/06 Q1024

If stream doesn't start automatically press the play button
If stream stops then reload player then press play